createdAt,value
2022-11-24T00:01:31.080Z,4.84
2022-11-24T00:04:04.654Z,4.83
2022-11-24T00:06:33.995Z,4.77
2022-11-24T00:09:03.336Z,4.79
2022-11-24T00:11:39.029Z,4.80
2022-11-24T00:14:09.582Z,4.79
2022-11-24T00:16:38.759Z,4.81
2022-11-24T00:19:11.394Z,4.82
2022-11-24T00:21:40.294Z,4.81
2022-11-24T00:24:08.017Z,4.77
2022-11-24T00:26:37.478Z,4.77
2022-11-24T00:29:07.572Z,4.77
2022-11-24T00:31:38.362Z,4.77
2022-11-24T00:34:12.805Z,4.76
2022-11-24T00:36:42.370Z,4.80
2022-11-24T00:39:13.522Z,4.81
2022-11-24T00:41:43.900Z,4.83
2022-11-24T00:44:11.578Z,4.85
2022-11-24T00:46:39.527Z,4.86
2022-11-24T00:49:10.078Z,4.87
2022-11-24T00:51:37.640Z,4.89
2022-11-24T00:54:06.331Z,4.85
2022-11-24T00:56:36.150Z,4.86
2022-11-24T00:59:05.423Z,4.87
2022-11-24T01:01:35.254Z,4.90
2022-11-24T01:04:05.402Z,4.89
2022-11-24T01:06:35.781Z,4.92
2022-11-24T01:09:04.741Z,4.94
2022-11-24T01:11:50.752Z,4.93
2022-11-24T01:14:18.928Z,4.94
2022-11-24T01:16:46.828Z,4.97
2022-11-24T01:19:14.359Z,4.94
2022-11-24T01:21:41.965Z,4.98
2022-11-24T01:24:13.176Z,4.95
2022-11-24T01:26:42.013Z,4.97
2022-11-24T01:29:11.818Z,4.99
2022-11-24T01:31:39.419Z,4.97
2022-11-24T01:34:07.293Z,4.97
2022-11-24T01:36:35.345Z,5.00
2022-11-24T01:39:05.277Z,5.00
2022-11-24T01:41:34.683Z,5.00
2022-11-24T01:44:25.125Z,5.03
2022-11-24T01:47:15.860Z,5.02
2022-11-24T01:49:52.788Z,5.04
2022-11-24T01:52:23.044Z,4.98
2022-11-24T01:54:56.115Z,5.03
2022-11-24T01:57:44.623Z,5.02
2022-11-24T02:00:15.393Z,5.02
2022-11-24T02:02:45.473Z,5.03
2022-11-24T02:05:20.908Z,5.01
2022-11-24T02:07:51.992Z,5.02
2022-11-24T02:10:21.117Z,5.01
2022-11-24T02:12:52.468Z,5.01
2022-11-24T02:15:21.158Z,5.01
2022-11-24T02:17:51.620Z,4.95
2022-11-24T02:20:19.628Z,4.93
2022-11-24T02:23:08.810Z,4.95
2022-11-24T02:26:12.523Z,4.93
2022-11-24T02:28:40.166Z,4.91
2022-11-24T02:31:10.409Z,4.92
2022-11-24T02:33:40.045Z,4.92
2022-11-24T02:36:10.343Z,4.90
2022-11-24T02:38:38.001Z,4.91
2022-11-24T02:41:11.434Z,4.90
2022-11-24T02:43:45.281Z,4.90
2022-11-24T02:46:12.997Z,4.94
2022-11-24T02:48:40.528Z,4.92
2022-11-24T02:51:08.059Z,4.91
2022-11-24T02:53:35.867Z,4.89
2022-11-24T02:56:03.915Z,4.91
2022-11-24T02:58:31.482Z,4.88
2022-11-24T03:00:59.876Z,4.89
2022-11-24T03:03:28.539Z,4.90
2022-11-24T03:05:56.106Z,4.89
2022-11-24T03:08:23.867Z,4.85
2022-11-24T03:10:51.506Z,4.80
2022-11-24T03:13:21.173Z,4.83
2022-11-24T03:15:48.782Z,4.83
2022-11-24T03:18:16.462Z,4.77
2022-11-24T03:20:44.210Z,4.79
2022-11-24T03:23:11.903Z,4.80
2022-11-24T03:25:39.751Z,4.78
2022-11-24T03:28:12.334Z,4.77
2022-11-24T03:30:40.997Z,4.76
2022-11-24T03:33:08.544Z,4.76
2022-11-24T03:35:36.072Z,4.75
2022-11-24T03:38:04.980Z,4.75
2022-11-24T03:40:32.517Z,4.72
2022-11-24T03:43:00.064Z,4.75
2022-11-24T03:48:17.387Z,4.72
2022-11-24T03:50:53.073Z,4.72
2022-11-24T03:53:21.949Z,4.69
2022-11-24T03:55:49.517Z,4.65
2022-11-24T03:58:19.969Z,4.63
2022-11-24T04:00:50.254Z,4.58
2022-11-24T04:03:19.162Z,4.59
2022-11-24T04:05:47.802Z,4.59
2022-11-24T04:08:17.996Z,4.55
2022-11-24T04:10:52.048Z,4.51
2022-11-24T04:13:21.147Z,4.46
2022-11-24T04:15:51.167Z,4.49
2022-11-24T04:18:19.088Z,4.49
2022-11-24T04:20:46.806Z,4.48
2022-11-24T04:23:14.331Z,4.48
2022-11-24T04:25:43.673Z,4.47
2022-11-24T04:28:13.919Z,4.44
2022-11-24T04:30:44.693Z,4.42
2022-11-24T04:33:13.338Z,4.40
2022-11-24T04:35:40.934Z,4.40
2022-11-24T04:38:08.473Z,4.38
2022-11-24T04:40:36.050Z,4.36
2022-11-24T04:43:03.941Z,4.32
2022-11-24T04:45:31.450Z,4.31
2022-11-24T04:48:00.310Z,4.27
2022-11-24T04:50:30.277Z,4.24
2022-11-24T04:52:58.170Z,4.22
2022-11-24T04:55:29.455Z,4.21
2022-11-24T04:57:57.090Z,4.22
2022-11-24T05:00:24.620Z,4.14
2022-11-24T05:02:52.158Z,4.19
2022-11-24T05:05:20.438Z,4.19
2022-11-24T05:07:49.045Z,4.17
2022-11-24T05:10:34.229Z,4.20
2022-11-24T05:13:02.795Z,4.19
2022-11-24T05:15:30.590Z,4.22
2022-11-24T05:17:58.663Z,4.24
2022-11-24T05:20:29.567Z,4.26
2022-11-24T05:23:04.973Z,4.55
2022-11-24T05:25:33.580Z,4.44
2022-11-24T05:28:02.972Z,4.41
2022-11-24T05:30:31.664Z,4.36
2022-11-24T05:32:59.815Z,4.40
2022-11-24T05:35:27.444Z,4.41
2022-11-24T05:37:55.398Z,4.42
2022-11-24T05:40:22.952Z,4.40
2022-11-24T05:42:50.464Z,4.46
2022-11-24T05:45:20.758Z,4.51
2022-11-24T05:47:49.800Z,4.55
2022-11-24T05:50:19.289Z,4.59
2022-11-24T05:52:49.174Z,4.60
2022-11-24T05:55:21.454Z,4.61
2022-11-24T05:57:49.034Z,4.61
2022-11-24T06:00:18.207Z,4.61
2022-11-24T06:02:45.861Z,4.62
2022-11-24T06:05:15.961Z,4.58
2022-11-24T06:07:43.593Z,4.59
2022-11-24T06:10:13.690Z,4.56
2022-11-24T06:12:41.206Z,4.51
2022-11-24T06:15:09.426Z,4.52
2022-11-24T06:17:36.954Z,4.50
2022-11-24T06:20:07.578Z,4.50
2022-11-24T06:22:35.305Z,4.54
2022-11-24T06:25:05.833Z,4.41
2022-11-24T06:27:35.894Z,4.54
2022-11-24T06:30:03.965Z,4.64
2022-11-24T06:32:31.634Z,4.72
2022-11-24T06:34:59.786Z,4.76
2022-11-24T06:37:27.729Z,4.85
2022-11-24T06:39:55.766Z,4.89
2022-11-24T06:42:23.318Z,4.87
2022-11-24T06:44:53.285Z,4.87
2022-11-24T06:47:23.340Z,4.91
2022-11-24T06:49:50.844Z,4.92
2022-11-24T06:52:18.519Z,4.92
2022-11-24T06:54:46.138Z,4.88
2022-11-24T06:57:16.102Z,4.93
2022-11-24T06:59:46.001Z,4.94
2022-11-24T07:02:13.534Z,5.02
2022-11-24T07:04:41.053Z,5.07
2022-11-24T07:07:08.818Z,5.07
2022-11-24T07:09:36.416Z,5.10
2022-11-24T07:12:04.877Z,5.16
2022-11-24T07:14:33.445Z,5.20
2022-11-24T07:17:04.822Z,5.20
2022-11-24T07:19:32.497Z,5.29
2022-11-24T07:22:00.481Z,5.34
2022-11-24T07:24:28.267Z,5.39
2022-11-24T07:26:55.838Z,5.46
2022-11-24T07:29:23.494Z,5.58
2022-11-24T07:31:51.082Z,5.58
2022-11-24T07:34:19.182Z,6.03
2022-11-24T07:36:46.815Z,5.81
2022-11-24T07:39:14.330Z,5.77
2022-11-24T07:41:41.878Z,5.72
2022-11-24T07:44:09.406Z,5.68
2022-11-24T07:46:37.009Z,5.64
2022-11-24T07:49:04.714Z,5.57
2022-11-24T07:51:32.287Z,5.58
2022-11-24T07:54:01.697Z,5.52
2022-11-24T07:56:32.020Z,5.54
2022-11-24T07:59:00.748Z,5.52
2022-11-24T08:01:28.419Z,5.54
2022-11-24T08:04:00.541Z,5.54
2022-11-24T08:06:38.608Z,5.60
2022-11-24T08:09:08.410Z,5.67
2022-11-24T08:11:36.538Z,5.70
2022-11-24T08:14:04.071Z,5.71
2022-11-24T08:16:33.185Z,5.74
2022-11-24T08:19:00.820Z,5.79
2022-11-24T08:21:30.915Z,5.86
2022-11-24T08:23:58.633Z,5.92
2022-11-24T08:26:26.821Z,6.02
2022-11-24T08:28:56.982Z,6.01
2022-11-24T08:31:33.426Z,6.01
2022-11-24T08:34:03.155Z,6.07
2022-11-24T08:36:30.798Z,6.07
2022-11-24T08:39:00.298Z,6.04
2022-11-24T08:41:29.023Z,6.08
2022-11-24T08:43:57.163Z,6.14
2022-11-24T08:46:25.022Z,6.04
2022-11-24T08:48:54.583Z,6.06
2022-11-24T08:51:26.265Z,6.01
2022-11-24T08:53:58.892Z,6.08
2022-11-24T08:56:33.715Z,6.04
2022-11-24T08:59:01.846Z,6.06
2022-11-24T09:01:30.183Z,6.12
2022-11-24T09:03:58.413Z,6.19
2022-11-24T09:06:30.832Z,6.20
2022-11-24T09:08:59.327Z,6.17
2022-11-24T09:11:28.040Z,6.15
2022-11-24T09:13:56.286Z,6.17
2022-11-24T09:16:27.281Z,6.19
2022-11-24T09:19:01.672Z,6.16
2022-11-24T09:21:30.792Z,6.17
2022-11-24T09:23:58.582Z,6.22
2022-11-24T09:26:29.512Z,6.25
2022-11-24T09:28:58.596Z,6.30
2022-11-24T09:31:34.586Z,6.36
2022-11-24T09:34:03.869Z,6.45
2022-11-24T09:36:32.364Z,6.60
2022-11-24T09:39:00.274Z,6.67
2022-11-24T09:41:41.975Z,6.70
2022-11-24T09:44:38.191Z,6.71
2022-11-24T09:47:18.167Z,6.72
2022-11-24T09:49:51.648Z,6.80
2022-11-24T09:52:44.802Z,6.80
2022-11-24T09:55:43.570Z,6.64
2022-11-24T09:58:37.883Z,6.63
2022-11-24T10:01:19.216Z,6.37
2022-11-24T10:03:50.461Z,6.20
2022-11-24T10:06:36.252Z,6.13
2022-11-24T10:09:06.442Z,6.06
2022-11-24T10:11:46.604Z,6.04
2022-11-24T10:14:39.169Z,6.04
2022-11-24T10:17:24.962Z,6.06
2022-11-24T10:20:04.483Z,6.05
2022-11-24T10:22:53.596Z,6.05
2022-11-24T10:25:27.229Z,6.03
2022-11-24T10:28:09.540Z,6.04
2022-11-24T10:30:38.014Z,6.04
2022-11-24T10:33:24.239Z,6.05
2022-11-24T10:36:01.666Z,6.04
2022-11-24T10:38:38.318Z,6.08
2022-11-24T10:41:08.909Z,6.11
2022-11-24T10:43:36.442Z,6.16
2022-11-24T10:46:20.278Z,6.21
2022-11-24T10:49:20.323Z,6.25
2022-11-24T10:52:01.596Z,6.33
2022-11-24T10:54:29.795Z,6.34
2022-11-24T10:56:57.457Z,6.38
2022-11-24T10:59:34.251Z,6.45
2022-11-24T11:02:02.629Z,6.52
2022-11-24T11:04:35.953Z,6.55
2022-11-24T11:07:21.988Z,6.62
2022-11-24T11:09:50.574Z,6.65
2022-11-24T11:12:45.716Z,6.69
2022-11-24T11:15:29.835Z,6.69
2022-11-24T11:18:00.303Z,6.73
2022-11-24T11:20:33.595Z,6.72
2022-11-24T11:23:14.327Z,6.73
2022-11-24T11:25:45.388Z,6.78
2022-11-24T11:28:29.422Z,6.88
2022-11-24T11:31:17.772Z,6.94
2022-11-24T11:34:35.156Z,7.03
2022-11-24T11:37:04.691Z,7.17
2022-11-24T11:39:32.181Z,7.23
2022-11-24T11:42:08.003Z,7.27
2022-11-24T11:44:38.391Z,7.28
2022-11-24T11:47:20.270Z,7.34
2022-11-24T11:49:49.498Z,7.37
2022-11-24T11:52:43.481Z,7.35
2022-11-24T11:55:29.831Z,7.38
2022-11-24T11:58:14.602Z,7.43
2022-11-24T12:00:54.281Z,7.36
2022-11-24T12:03:30.770Z,7.40
2022-11-24T12:06:24.789Z,7.35
2022-11-24T12:09:20.921Z,7.44
2022-11-24T12:12:01.013Z,7.45
2022-11-24T12:14:51.598Z,7.47
2022-11-24T12:17:37.794Z,7.34
2022-11-24T12:20:15.534Z,7.30
2022-11-24T12:22:53.433Z,7.26
2022-11-24T12:25:29.257Z,7.19
2022-11-24T12:28:03.778Z,7.02
2022-11-24T12:30:54.542Z,7.00
2022-11-24T12:33:46.200Z,6.92
2022-11-24T12:36:47.186Z,6.90
2022-11-24T12:39:52.381Z,6.90
2022-11-24T12:42:37.471Z,6.83
2022-11-24T12:45:13.107Z,6.74
2022-11-24T12:48:18.731Z,7.04
2022-11-24T12:50:47.079Z,7.30
2022-11-24T12:53:31.949Z,7.45
2022-11-24T12:56:10.393Z,7.61
2022-11-24T12:58:50.308Z,8.22
2022-11-24T13:01:36.760Z,8.80
2022-11-24T13:04:16.475Z,8.59
2022-11-24T13:06:59.224Z,8.25
2022-11-24T13:09:26.771Z,8.51
2022-11-24T13:12:09.822Z,8.52
2022-11-24T13:14:40.042Z,8.13
2022-11-24T13:17:47.575Z,7.64
2022-11-24T13:20:21.607Z,7.44
2022-11-24T13:23:03.742Z,7.21
2022-11-24T13:25:43.056Z,7.10
2022-11-24T13:29:01.873Z,7.02
2022-11-24T13:31:32.262Z,6.95
2022-11-24T13:33:59.906Z,6.92
2022-11-24T13:36:28.719Z,6.94
2022-11-24T13:38:56.353Z,6.96
2022-11-24T13:41:35.246Z,6.95
2022-11-24T13:44:14.725Z,6.97
2022-11-24T13:47:03.281Z,6.99
2022-11-24T13:49:43.692Z,6.98
2022-11-24T13:52:48.455Z,6.92
2022-11-24T13:55:15.999Z,6.94
2022-11-24T13:57:47.766Z,6.94
2022-11-24T14:00:30.844Z,6.90
2022-11-24T14:03:21.680Z,6.89
2022-11-24T14:05:53.327Z,6.90
2022-11-24T14:08:26.813Z,6.86
2022-11-24T14:11:00.860Z,6.87
2022-11-24T14:13:30.972Z,6.86
2022-11-24T14:16:04.442Z,6.86
2022-11-24T14:18:33.123Z,6.89
2022-11-24T14:21:20.832Z,6.87
2022-11-24T14:23:55.288Z,6.83
2022-11-24T14:26:26.456Z,6.80
2022-11-24T14:28:55.348Z,6.75
2022-11-24T14:31:27.784Z,6.73
2022-11-24T14:34:13.537Z,6.70
2022-11-24T14:36:43.962Z,6.67
2022-11-24T14:39:20.450Z,6.63
2022-11-24T14:42:15.859Z,6.60
2022-11-24T14:44:49.573Z,6.55
2022-11-24T14:47:33.669Z,6.50
2022-11-24T14:50:12.505Z,6.45
2022-11-24T14:52:47.092Z,6.42
2022-11-24T14:55:30.974Z,6.37
2022-11-24T14:58:00.199Z,6.31
2022-11-24T15:00:34.740Z,6.27
2022-11-24T15:03:02.650Z,6.22
2022-11-24T15:05:52.025Z,6.19
2022-11-24T15:08:19.741Z,6.15
2022-11-24T15:10:47.670Z,6.12
2022-11-24T15:13:26.071Z,6.07
2022-11-24T15:16:04.508Z,6.01
2022-11-24T15:18:48.882Z,5.93
2022-11-24T15:21:19.439Z,5.86
2022-11-24T15:24:18.741Z,5.80
2022-11-24T15:26:46.920Z,5.75
2022-11-24T15:29:14.609Z,5.71
2022-11-24T15:31:49.227Z,5.50
2022-11-24T15:34:20.822Z,5.57
2022-11-24T15:36:48.358Z,5.51
2022-11-24T15:39:18.040Z,5.41
2022-11-24T15:41:47.047Z,5.36
2022-11-24T15:44:14.559Z,5.31
2022-11-24T15:46:42.325Z,5.28
2022-11-24T15:49:09.887Z,5.26
2022-11-24T15:51:43.316Z,5.26
2022-11-24T15:54:15.767Z,5.06
2022-11-24T15:56:44.891Z,5.09
2022-11-24T15:59:20.224Z,5.05
2022-11-24T16:01:50.724Z,5.05
2022-11-24T16:04:18.494Z,5.08
2022-11-24T16:06:46.039Z,4.93
2022-11-24T16:09:16.823Z,5.05
2022-11-24T16:11:44.393Z,5.05
2022-11-24T16:14:12.024Z,5.08
2022-11-24T16:16:40.785Z,5.04
2022-11-24T16:19:10.348Z,5.05
2022-11-24T16:21:37.901Z,5.05
2022-11-24T16:24:05.572Z,5.05
2022-11-24T16:26:35.298Z,5.06
2022-11-24T16:29:02.789Z,5.07
2022-11-24T16:31:30.472Z,5.08
2022-11-24T16:33:58.378Z,4.98
2022-11-24T16:36:26.116Z,5.17
2022-11-24T16:38:53.624Z,5.17
2022-11-24T16:41:21.761Z,5.16
2022-11-24T16:43:51.702Z,5.16
2022-11-24T16:46:21.106Z,5.15
2022-11-24T16:48:52.039Z,5.10
2022-11-24T16:51:21.787Z,5.03
2022-11-24T16:53:49.822Z,4.99
2022-11-24T16:56:20.730Z,4.98
2022-11-24T16:58:48.320Z,4.98
2022-11-24T17:01:16.032Z,5.05
2022-11-24T17:03:43.770Z,4.97
2022-11-24T17:06:15.813Z,4.99
2022-11-24T17:08:44.808Z,5.01
2022-11-24T17:11:18.115Z,4.97
2022-11-24T17:13:47.287Z,4.99
2022-11-24T17:16:17.058Z,4.94
2022-11-24T17:18:46.369Z,4.85
2022-11-24T17:21:19.292Z,4.85
2022-11-24T17:23:47.752Z,4.87
2022-11-24T17:26:19.425Z,4.78
2022-11-24T17:28:47.047Z,4.74
2022-11-24T17:31:25.009Z,4.73
2022-11-24T17:33:55.186Z,4.62
2022-11-24T17:36:23.331Z,4.81
2022-11-24T17:38:51.005Z,4.78
2022-11-24T17:41:19.732Z,4.76
2022-11-24T17:43:51.630Z,4.69
2022-11-24T17:46:20.335Z,4.65
2022-11-24T17:48:48.257Z,4.65
2022-11-24T17:51:18.104Z,4.60
2022-11-24T17:53:50.363Z,4.65
2022-11-24T17:56:23.664Z,4.59
2022-11-24T17:58:55.978Z,4.63
2022-11-24T18:01:28.661Z,4.62
2022-11-24T18:03:56.834Z,4.61
2022-11-24T18:06:25.560Z,4.63
2022-11-24T18:08:54.732Z,4.61
2022-11-24T18:11:32.435Z,4.61
2022-11-24T18:14:03.346Z,4.67
2022-11-24T18:16:35.664Z,4.69
2022-11-24T18:19:10.964Z,4.53
2022-11-24T18:21:43.765Z,4.69
2022-11-24T18:24:12.446Z,4.69
2022-11-24T18:26:41.601Z,4.70
2022-11-24T18:29:09.588Z,4.65
2022-11-24T18:31:38.239Z,4.65
2022-11-24T18:34:07.104Z,4.63
2022-11-24T18:36:39.912Z,4.40
2022-11-24T18:39:09.147Z,4.60
2022-11-24T18:41:37.127Z,4.60
2022-11-24T18:44:07.977Z,4.60
2022-11-24T18:46:35.895Z,4.60
2022-11-24T18:49:05.067Z,4.57
2022-11-24T18:51:32.628Z,4.62
2022-11-24T18:54:02.477Z,4.66
2022-11-24T18:56:30.440Z,4.62
2022-11-24T18:59:02.983Z,4.68
2022-11-24T19:01:31.160Z,4.73
2022-11-24T19:04:02.890Z,4.71
2022-11-24T19:06:35.739Z,4.66
2022-11-24T19:09:15.488Z,4.62
2022-11-24T19:11:51.078Z,4.53
2022-11-24T19:14:19.819Z,4.55
2022-11-24T19:16:50.249Z,4.49
2022-11-24T19:19:18.065Z,4.51
2022-11-24T19:21:47.984Z,4.54
2022-11-24T19:24:15.519Z,4.54
2022-11-24T19:26:43.248Z,4.52
2022-11-24T19:29:13.363Z,4.54
2022-11-24T19:31:41.168Z,4.42
2022-11-24T19:34:08.981Z,4.49
2022-11-24T19:36:36.763Z,4.41
2022-11-24T19:39:05.257Z,4.40
2022-11-24T19:41:34.234Z,4.38
2022-11-24T19:44:01.800Z,4.35
2022-11-24T19:46:30.401Z,4.34
2022-11-24T19:49:03.229Z,4.37
2022-11-24T19:51:34.765Z,4.34
2022-11-24T19:54:06.643Z,4.38
2022-11-24T19:56:36.962Z,4.42
2022-11-24T19:59:06.890Z,4.44
2022-11-24T20:01:40.219Z,4.46
2022-11-24T20:04:15.599Z,4.49
2022-11-24T20:06:46.102Z,4.54
2022-11-24T20:09:16.035Z,4.57
2022-11-24T20:11:43.742Z,4.61
2022-11-24T20:14:16.042Z,4.60
2022-11-24T20:16:45.543Z,4.64
2022-11-24T20:19:15.882Z,4.57
2022-11-24T20:21:46.397Z,4.61
2022-11-24T20:24:20.071Z,4.61
2022-11-24T20:26:53.260Z,4.63
2022-11-24T20:29:23.765Z,4.58
2022-11-24T20:31:56.786Z,4.55
2022-11-24T20:34:26.200Z,4.54
2022-11-24T20:36:55.845Z,4.52
2022-11-24T20:39:27.014Z,4.38
2022-11-24T20:41:57.678Z,4.49
2022-11-24T20:44:28.101Z,4.56
2022-11-24T20:46:58.161Z,4.56
2022-11-24T20:49:26.105Z,4.59
2022-11-24T20:51:54.906Z,4.63
2022-11-24T20:54:25.575Z,4.62
2022-11-24T20:56:55.716Z,4.59
2022-11-24T20:59:27.000Z,4.58
2022-11-24T21:01:56.176Z,4.63
2022-11-24T21:04:26.507Z,4.69
2022-11-24T21:06:54.886Z,4.68
2022-11-24T21:09:22.543Z,4.76
2022-11-24T21:11:50.252Z,4.74
2022-11-24T21:14:20.243Z,4.73
2022-11-24T21:16:47.811Z,4.60
2022-11-24T21:19:18.181Z,4.75
2022-11-24T21:21:47.485Z,4.81
2022-11-24T21:24:19.496Z,4.83
2022-11-24T21:26:51.253Z,4.81
2022-11-24T21:29:23.502Z,4.80
2022-11-24T21:31:56.049Z,4.73
2022-11-24T21:34:23.643Z,4.70
2022-11-24T21:36:52.680Z,4.75
2022-11-24T21:39:20.607Z,4.73
2022-11-24T21:41:48.374Z,4.70
2022-11-24T21:44:18.400Z,4.71
2022-11-24T21:46:54.333Z,4.68
2022-11-24T21:49:23.474Z,4.68
2022-11-24T21:51:55.463Z,4.60
2022-11-24T21:54:29.495Z,4.62
2022-11-24T21:56:57.032Z,4.58
2022-11-24T21:59:24.552Z,4.57
2022-11-24T22:01:55.825Z,4.50
2022-11-24T22:04:23.810Z,4.45
2022-11-24T22:06:54.323Z,4.36
2022-11-24T22:09:24.610Z,4.29
2022-11-24T22:11:53.301Z,4.28
2022-11-24T22:14:20.843Z,4.31
2022-11-24T22:16:48.427Z,4.25
2022-11-24T22:19:18.559Z,4.36
2022-11-24T22:21:46.260Z,4.31
2022-11-24T22:24:13.976Z,4.34
2022-11-24T22:26:42.762Z,4.24
2022-11-24T22:29:10.416Z,4.20
2022-11-24T22:31:40.557Z,4.09
2022-11-24T22:34:10.642Z,4.01
2022-11-24T22:36:41.779Z,4.05
2022-11-24T22:39:13.133Z,4.07
2022-11-24T22:41:40.648Z,4.03
2022-11-24T22:44:08.262Z,4.00
2022-11-24T22:46:35.768Z,4.03
2022-11-24T22:49:06.935Z,4.14
2022-11-24T22:51:35.745Z,4.21
2022-11-24T22:54:04.980Z,4.26
2022-11-24T22:56:35.083Z,4.33
2022-11-24T22:59:06.611Z,4.32
2022-11-24T23:01:34.632Z,4.36
2022-11-24T23:04:04.967Z,4.33
2022-11-24T23:06:34.028Z,4.30
2022-11-24T23:09:02.892Z,4.25
2022-11-24T23:11:38.573Z,4.17
2022-11-24T23:14:15.683Z,3.97
2022-11-24T23:16:43.699Z,4.07
2022-11-24T23:19:15.042Z,3.93
2022-11-24T23:21:42.620Z,3.79
2022-11-24T23:24:16.046Z,3.69
2022-11-24T23:26:43.665Z,3.26
2022-11-24T23:29:13.666Z,3.40
2022-11-24T23:31:43.545Z,3.15
2022-11-24T23:34:11.231Z,3.14
2022-11-24T23:36:38.804Z,3.03
2022-11-24T23:39:14.372Z,2.93
2022-11-24T23:41:42.348Z,2.84
2022-11-24T23:44:09.859Z,2.76
2022-11-24T23:46:37.453Z,2.70
2022-11-24T23:49:05.039Z,2.67
2022-11-24T23:51:34.077Z,2.64
2022-11-24T23:54:04.435Z,2.62
2022-11-24T23:56:33.622Z,2.59
2022-11-24T23:59:05.075Z,2.52
